sensor_id;sensor_type;location;lat;lon;timestamp;temperature;humidity
15969;DHT22;8085;53.472;9.794;2023-09-07T00:01:56;18.20;99.90
15969;DHT22;8085;53.472;9.794;2023-09-07T00:04:23;18.20;99.90
15969;DHT22;8085;53.472;9.794;2023-09-07T00:06:50;18.20;99.90
15969;DHT22;8085;53.472;9.794;2023-09-07T00:09:18;18.20;99.90
15969;DHT22;8085;53.472;9.794;2023-09-07T00:11:47;18.10;99.90
15969;DHT22;8085;53.472;9.794;2023-09-07T00:14:14;18.10;99.90
15969;DHT22;8085;53.472;9.794;2023-09-07T00:16:41;18.10;99.90
15969;DHT22;8085;53.472;9.794;2023-09-07T00:19:08;18.10;99.90
15969;DHT22;8085;53.472;9.794;2023-09-07T00:21:35;18.10;99.90
15969;DHT22;8085;53.472;9.794;2023-09-07T00:24:03;18.00;99.90
15969;DHT22;8085;53.472;9.794;2023-09-07T00:26:32;18.00;99.90
15969;DHT22;8085;53.472;9.794;2023-09-07T00:28:59;18.00;99.90
15969;DHT22;8085;53.472;9.794;2023-09-07T00:31:26;18.00;99.90
15969;DHT22;8085;53.472;9.794;2023-09-07T00:33:53;17.90;99.90
15969;DHT22;8085;53.472;9.794;2023-09-07T00:36:20;17.90;99.90
15969;DHT22;8085;53.472;9.794;2023-09-07T00:38:47;17.90;99.90
15969;DHT22;8085;53.472;9.794;2023-09-07T00:41:14;17.80;99.90
15969;DHT22;8085;53.472;9.794;2023-09-07T00:43:42;17.80;99.90
15969;DHT22;8085;53.472;9.794;2023-09-07T00:46:09;17.80;99.90
15969;DHT22;8085;53.472;9.794;2023-09-07T00:48:37;17.70;99.90
15969;DHT22;8085;53.472;9.794;2023-09-07T00:51:05;17.70;99.90
15969;DHT22;8085;53.472;9.794;2023-09-07T00:53:32;17.70;99.90
15969;DHT22;8085;53.472;9.794;2023-09-07T00:55:59;17.70;99.90
15969;DHT22;8085;53.472;9.794;2023-09-07T00:58:26;17.70;99.90
15969;DHT22;8085;53.472;9.794;2023-09-07T01:00:55;17.60;99.90
15969;DHT22;8085;53.472;9.794;2023-09-07T01:03:22;17.60;99.90
15969;DHT22;8085;53.472;9.794;2023-09-07T01:05:54;17.50;99.90
15969;DHT22;8085;53.472;9.794;2023-09-07T01:08:25;17.60;99.90
15969;DHT22;8085;53.472;9.794;2023-09-07T01:10:52;17.40;99.90
15969;DHT22;8085;53.472;9.794;2023-09-07T01:13:19;17.40;99.90
15969;DHT22;8085;53.472;9.794;2023-09-07T01:15:47;17.40;99.90
15969;DHT22;8085;53.472;9.794;2023-09-07T01:18:16;17.40;99.90
15969;DHT22;8085;53.472;9.794;2023-09-07T01:20:45;17.30;99.90
15969;DHT22;8085;53.472;9.794;2023-09-07T01:23:15;17.30;99.90
15969;DHT22;8085;53.472;9.794;2023-09-07T01:25:42;17.20;99.90
15969;DHT22;8085;53.472;9.794;2023-09-07T01:28:10;17.30;99.90
15969;DHT22;8085;53.472;9.794;2023-09-07T01:30:37;17.20;99.90
15969;DHT22;8085;53.472;9.794;2023-09-07T01:33:05;17.20;99.90
15969;DHT22;8085;53.472;9.794;2023-09-07T01:35:33;17.20;99.90
15969;DHT22;8085;53.472;9.794;2023-09-07T01:38:01;17.10;99.90
15969;DHT22;8085;53.472;9.794;2023-09-07T01:40:29;17.10;99.90
15969;DHT22;8085;53.472;9.794;2023-09-07T01:42:56;17.10;99.90
15969;DHT22;8085;53.472;9.794;2023-09-07T01:45:23;17.00;99.90
15969;DHT22;8085;53.472;9.794;2023-09-07T01:47:49;17.00;99.90
15969;DHT22;8085;53.472;9.794;2023-09-07T01:50:17;16.90;99.90
15969;DHT22;8085;53.472;9.794;2023-09-07T01:52:46;17.00;99.90
15969;DHT22;8085;53.472;9.794;2023-09-07T01:55:13;17.00;99.90
15969;DHT22;8085;53.472;9.794;2023-09-07T01:57:42;16.90;99.90
15969;DHT22;8085;53.472;9.794;2023-09-07T02:00:10;16.90;99.90
15969;DHT22;8085;53.472;9.794;2023-09-07T02:02:37;16.90;99.90
15969;DHT22;8085;53.472;9.794;2023-09-07T02:05:05;16.90;99.90
15969;DHT22;8085;53.472;9.794;2023-09-07T02:07:32;16.90;99.90
15969;DHT22;8085;53.472;9.794;2023-09-07T02:09:59;16.80;99.90
15969;DHT22;8085;53.472;9.794;2023-09-07T02:12:26;16.80;99.90
15969;DHT22;8085;53.472;9.794;2023-09-07T02:14:55;16.80;99.90
15969;DHT22;8085;53.472;9.794;2023-09-07T02:17:22;16.90;99.90
15969;DHT22;8085;53.472;9.794;2023-09-07T02:19:49;16.90;99.90
15969;DHT22;8085;53.472;9.794;2023-09-07T02:22:16;16.90;99.90
15969;DHT22;8085;53.472;9.794;2023-09-07T02:24:42;16.90;99.90
15969;DHT22;8085;53.472;9.794;2023-09-07T02:27:10;16.90;99.90
15969;DHT22;8085;53.472;9.794;2023-09-07T02:29:36;16.80;99.90
15969;DHT22;8085;53.472;9.794;2023-09-07T02:32:05;16.90;99.90
15969;DHT22;8085;53.472;9.794;2023-09-07T02:34:32;16.80;99.90
15969;DHT22;8085;53.472;9.794;2023-09-07T02:37:01;16.80;99.90
15969;DHT22;8085;53.472;9.794;2023-09-07T02:39:28;16.80;99.90
15969;DHT22;8085;53.472;9.794;2023-09-07T02:41:55;16.80;99.90
15969;DHT22;8085;53.472;9.794;2023-09-07T02:44:22;16.80;99.90
15969;DHT22;8085;53.472;9.794;2023-09-07T02:46:49;16.70;99.90
15969;DHT22;8085;53.472;9.794;2023-09-07T02:49:17;16.70;99.90
15969;DHT22;8085;53.472;9.794;2023-09-07T02:51:44;16.70;99.90
15969;DHT22;8085;53.472;9.794;2023-09-07T02:54:11;16.70;99.90
15969;DHT22;8085;53.472;9.794;2023-09-07T02:56:38;16.60;99.90
15969;DHT22;8085;53.472;9.794;2023-09-07T02:59:05;16.60;99.90
15969;DHT22;8085;53.472;9.794;2023-09-07T03:01:32;16.60;99.90
15969;DHT22;8085;53.472;9.794;2023-09-07T03:03:59;16.50;99.90
15969;DHT22;8085;53.472;9.794;2023-09-07T03:06:27;16.50;99.90
15969;DHT22;8085;53.472;9.794;2023-09-07T03:08:54;16.50;99.90
15969;DHT22;8085;53.472;9.794;2023-09-07T03:11:22;16.50;99.90
15969;DHT22;8085;53.472;9.794;2023-09-07T03:13:49;16.50;99.90
15969;DHT22;8085;53.472;9.794;2023-09-07T03:16:16;16.50;99.90
15969;DHT22;8085;53.472;9.794;2023-09-07T03:18:43;16.50;99.90
15969;DHT22;8085;53.472;9.794;2023-09-07T03:21:10;16.50;99.90
15969;DHT22;8085;53.472;9.794;2023-09-07T03:23:39;16.50;99.90
15969;DHT22;8085;53.472;9.794;2023-09-07T03:26:10;16.50;99.90
15969;DHT22;8085;53.472;9.794;2023-09-07T03:28:37;16.50;99.90
15969;DHT22;8085;53.472;9.794;2023-09-07T03:31:04;16.50;99.90
15969;DHT22;8085;53.472;9.794;2023-09-07T03:33:31;16.50;99.90
15969;DHT22;8085;53.472;9.794;2023-09-07T03:35:58;16.50;99.90
15969;DHT22;8085;53.472;9.794;2023-09-07T03:38:25;16.50;99.90
15969;DHT22;8085;53.472;9.794;2023-09-07T03:40:54;16.50;99.90
15969;DHT22;8085;53.472;9.794;2023-09-07T03:43:21;16.50;99.90
15969;DHT22;8085;53.472;9.794;2023-09-07T03:45:48;16.40;99.90
15969;DHT22;8085;53.472;9.794;2023-09-07T03:48:15;16.50;99.90
15969;DHT22;8085;53.472;9.794;2023-09-07T03:50:42;16.50;99.90
15969;DHT22;8085;53.472;9.794;2023-09-07T03:53:09;16.50;99.90
15969;DHT22;8085;53.472;9.794;2023-09-07T03:55:40;16.50;99.90
15969;DHT22;8085;53.472;9.794;2023-09-07T03:58:09;16.50;99.90
15969;DHT22;8085;53.472;9.794;2023-09-07T04:00:38;16.40;99.90
15969;DHT22;8085;53.472;9.794;2023-09-07T04:03:06;16.40;99.90
15969;DHT22;8085;53.472;9.794;2023-09-07T04:05:32;16.40;99.90
15969;DHT22;8085;53.472;9.794;2023-09-07T04:08:00;16.40;99.90
15969;DHT22;8085;53.472;9.794;2023-09-07T04:10:28;16.30;99.90
15969;DHT22;8085;53.472;9.794;2023-09-07T04:12:55;16.30;99.90
15969;DHT22;8085;53.472;9.794;2023-09-07T04:15:24;16.30;99.90
15969;DHT22;8085;53.472;9.794;2023-09-07T04:17:52;16.20;99.90
15969;DHT22;8085;53.472;9.794;2023-09-07T04:20:20;16.30;99.90
15969;DHT22;8085;53.472;9.794;2023-09-07T04:22:49;16.20;99.90
15969;DHT22;8085;53.472;9.794;2023-09-07T04:25:16;16.20;99.90
15969;DHT22;8085;53.472;9.794;2023-09-07T04:27:43;16.20;99.90
15969;DHT22;8085;53.472;9.794;2023-09-07T04:30:10;16.20;99.90
15969;DHT22;8085;53.472;9.794;2023-09-07T04:32:39;16.20;99.90
15969;DHT22;8085;53.472;9.794;2023-09-07T04:35:07;16.10;99.90
15969;DHT22;8085;53.472;9.794;2023-09-07T04:37:34;16.10;99.90
15969;DHT22;8085;53.472;9.794;2023-09-07T04:40:00;16.10;99.90
15969;DHT22;8085;53.472;9.794;2023-09-07T04:42:28;16.00;99.90
15969;DHT22;8085;53.472;9.794;2023-09-07T04:44:55;16.10;99.90
15969;DHT22;8085;53.472;9.794;2023-09-07T04:47:22;16.10;99.90
15969;DHT22;8085;53.472;9.794;2023-09-07T04:49:50;16.10;99.90
15969;DHT22;8085;53.472;9.794;2023-09-07T04:52:17;16.10;99.90
15969;DHT22;8085;53.472;9.794;2023-09-07T04:54:44;16.10;99.90
15969;DHT22;8085;53.472;9.794;2023-09-07T04:57:13;16.10;99.90
15969;DHT22;8085;53.472;9.794;2023-09-07T04:59:45;16.00;99.90
15969;DHT22;8085;53.472;9.794;2023-09-07T05:02:12;16.10;99.90
15969;DHT22;8085;53.472;9.794;2023-09-07T05:04:39;16.10;99.90
15969;DHT22;8085;53.472;9.794;2023-09-07T05:07:07;16.10;99.90
15969;DHT22;8085;53.472;9.794;2023-09-07T05:09:34;16.00;99.90
15969;DHT22;8085;53.472;9.794;2023-09-07T05:12:01;16.00;99.90
15969;DHT22;8085;53.472;9.794;2023-09-07T05:14:28;16.10;99.90
15969;DHT22;8085;53.472;9.794;2023-09-07T05:16:55;16.00;99.90
15969;DHT22;8085;53.472;9.794;2023-09-07T05:19:23;16.00;99.90
15969;DHT22;8085;53.472;9.794;2023-09-07T05:21:50;16.10;99.90
15969;DHT22;8085;53.472;9.794;2023-09-07T05:24:18;16.10;99.90
15969;DHT22;8085;53.472;9.794;2023-09-07T05:26:45;16.10;99.90
15969;DHT22;8085;53.472;9.794;2023-09-07T05:29:12;16.10;99.90
15969;DHT22;8085;53.472;9.794;2023-09-07T05:31:39;16.20;99.90
15969;DHT22;8085;53.472;9.794;2023-09-07T05:34:06;16.20;99.90
15969;DHT22;8085;53.472;9.794;2023-09-07T05:36:33;16.30;99.90
15969;DHT22;8085;53.472;9.794;2023-09-07T05:39:02;16.30;99.90
15969;DHT22;8085;53.472;9.794;2023-09-07T05:41:32;16.30;99.90
15969;DHT22;8085;53.472;9.794;2023-09-07T05:43:59;16.40;99.90
15969;DHT22;8085;53.472;9.794;2023-09-07T05:46:26;16.40;99.90
15969;DHT22;8085;53.472;9.794;2023-09-07T05:48:53;16.50;99.90
15969;DHT22;8085;53.472;9.794;2023-09-07T05:51:20;16.60;99.90
15969;DHT22;8085;53.472;9.794;2023-09-07T05:53:47;16.70;99.90
15969;DHT22;8085;53.472;9.794;2023-09-07T05:56:14;16.70;99.90
15969;DHT22;8085;53.472;9.794;2023-09-07T05:58:42;16.80;99.90
15969;DHT22;8085;53.472;9.794;2023-09-07T06:01:09;16.90;99.90
15969;DHT22;8085;53.472;9.794;2023-09-07T06:03:36;16.90;99.90
15969;DHT22;8085;53.472;9.794;2023-09-07T06:06:05;17.00;99.90
15969;DHT22;8085;53.472;9.794;2023-09-07T06:08:32;17.10;99.90
15969;DHT22;8085;53.472;9.794;2023-09-07T06:10:58;17.20;99.90
15969;DHT22;8085;53.472;9.794;2023-09-07T06:13:26;17.30;99.90
15969;DHT22;8085;53.472;9.794;2023-09-07T06:15:54;17.40;99.90
15969;DHT22;8085;53.472;9.794;2023-09-07T06:18:21;17.50;99.90
15969;DHT22;8085;53.472;9.794;2023-09-07T06:20:48;17.70;99.90
15969;DHT22;8085;53.472;9.794;2023-09-07T06:23:15;17.70;99.90
15969;DHT22;8085;53.472;9.794;2023-09-07T06:25:42;17.90;99.90
15969;DHT22;8085;53.472;9.794;2023-09-07T06:28:09;18.00;99.90
15969;DHT22;8085;53.472;9.794;2023-09-07T06:30:35;18.10;99.90
15969;DHT22;8085;53.472;9.794;2023-09-07T06:33:04;18.10;99.90
15969;DHT22;8085;53.472;9.794;2023-09-07T06:35:31;18.20;99.90
15969;DHT22;8085;53.472;9.794;2023-09-07T06:37:58;18.20;99.90
15969;DHT22;8085;53.472;9.794;2023-09-07T06:40:25;18.30;99.90
15969;DHT22;8085;53.472;9.794;2023-09-07T06:42:52;18.30;99.90
15969;DHT22;8085;53.472;9.794;2023-09-07T06:45:19;18.40;99.90
15969;DHT22;8085;53.472;9.794;2023-09-07T06:47:49;18.40;99.90
15969;DHT22;8085;53.472;9.794;2023-09-07T06:50:17;18.50;99.90
15969;DHT22;8085;53.472;9.794;2023-09-07T06:52:44;18.60;99.90
15969;DHT22;8085;53.472;9.794;2023-09-07T06:55:11;18.70;99.90
15969;DHT22;8085;53.472;9.794;2023-09-07T06:57:38;18.70;99.90
15969;DHT22;8085;53.472;9.794;2023-09-07T07:00:06;18.80;99.90
15969;DHT22;8085;53.472;9.794;2023-09-07T07:02:33;18.80;99.90
15969;DHT22;8085;53.472;9.794;2023-09-07T07:05:01;18.90;99.90
15969;DHT22;8085;53.472;9.794;2023-09-07T07:07:29;19.00;99.90
15969;DHT22;8085;53.472;9.794;2023-09-07T07:09:57;19.10;99.90
15969;DHT22;8085;53.472;9.794;2023-09-07T07:12:24;19.20;99.90
15969;DHT22;8085;53.472;9.794;2023-09-07T07:14:52;19.30;99.80
15969;DHT22;8085;53.472;9.794;2023-09-07T07:17:20;19.40;99.50
15969;DHT22;8085;53.472;9.794;2023-09-07T07:19:47;19.40;98.90
15969;DHT22;8085;53.472;9.794;2023-09-07T07:22:23;19.50;98.50
15969;DHT22;8085;53.472;9.794;2023-09-07T07:24:51;19.60;98.20
15969;DHT22;8085;53.472;9.794;2023-09-07T07:27:18;19.70;97.90
15969;DHT22;8085;53.472;9.794;2023-09-07T07:29:45;19.90;96.70
15969;DHT22;8085;53.472;9.794;2023-09-07T07:32:12;20.00;96.50
15969;DHT22;8085;53.472;9.794;2023-09-07T07:34:39;20.10;96.00
15969;DHT22;8085;53.472;9.794;2023-09-07T07:37:06;20.10;95.40
15969;DHT22;8085;53.472;9.794;2023-09-07T07:39:33;20.30;94.90
15969;DHT22;8085;53.472;9.794;2023-09-07T07:42:03;20.40;94.10
15969;DHT22;8085;53.472;9.794;2023-09-07T07:44:31;20.50;93.90
15969;DHT22;8085;53.472;9.794;2023-09-07T07:46:58;20.70;93.30
15969;DHT22;8085;53.472;9.794;2023-09-07T07:49:25;20.80;92.00
15969;DHT22;8085;53.472;9.794;2023-09-07T07:51:53;21.00;91.50
15969;DHT22;8085;53.472;9.794;2023-09-07T07:54:21;21.10;91.00
15969;DHT22;8085;53.472;9.794;2023-09-07T07:56:51;21.20;90.20
15969;DHT22;8085;53.472;9.794;2023-09-07T07:59:35;21.40;88.40
15969;DHT22;8085;53.472;9.794;2023-09-07T08:02:03;21.40;87.60
15969;DHT22;8085;53.472;9.794;2023-09-07T08:04:31;21.50;87.40
15969;DHT22;8085;53.472;9.794;2023-09-07T08:07:00;21.60;85.70
15969;DHT22;8085;53.472;9.794;2023-09-07T08:09:29;21.70;85.40
15969;DHT22;8085;53.472;9.794;2023-09-07T08:11:56;21.90;84.60
15969;DHT22;8085;53.472;9.794;2023-09-07T08:14:24;21.90;84.40
15969;DHT22;8085;53.472;9.794;2023-09-07T08:16:53;22.00;83.00
15969;DHT22;8085;53.472;9.794;2023-09-07T08:19:20;22.20;82.10
15969;DHT22;8085;53.472;9.794;2023-09-07T08:21:47;22.30;81.70
15969;DHT22;8085;53.472;9.794;2023-09-07T08:24:14;22.40;83.30
15969;DHT22;8085;53.472;9.794;2023-09-07T08:26:41;22.50;82.30
15969;DHT22;8085;53.472;9.794;2023-09-07T08:29:09;22.60;82.00
15969;DHT22;8085;53.472;9.794;2023-09-07T08:31:37;22.70;81.50
15969;DHT22;8085;53.472;9.794;2023-09-07T08:34:06;22.80;81.00
15969;DHT22;8085;53.472;9.794;2023-09-07T08:36:34;22.80;81.00
15969;DHT22;8085;53.472;9.794;2023-09-07T08:39:03;22.90;81.90
15969;DHT22;8085;53.472;9.794;2023-09-07T08:41:36;23.00;81.80
15969;DHT22;8085;53.472;9.794;2023-09-07T08:44:07;23.10;80.60
15969;DHT22;8085;53.472;9.794;2023-09-07T08:46:35;23.10;80.00
15969;DHT22;8085;53.472;9.794;2023-09-07T08:49:04;23.20;79.80
15969;DHT22;8085;53.472;9.794;2023-09-07T08:51:31;23.30;78.40
15969;DHT22;8085;53.472;9.794;2023-09-07T08:53:58;23.40;78.50
15969;DHT22;8085;53.472;9.794;2023-09-07T08:56:25;23.50;77.30
15969;DHT22;8085;53.472;9.794;2023-09-07T08:58:52;23.60;77.50
15969;DHT22;8085;53.472;9.794;2023-09-07T09:01:19;23.70;76.10
15969;DHT22;8085;53.472;9.794;2023-09-07T09:03:48;23.80;77.30
15969;DHT22;8085;53.472;9.794;2023-09-07T09:06:19;23.90;74.60
15969;DHT22;8085;53.472;9.794;2023-09-07T09:08:48;24.00;75.60
15969;DHT22;8085;53.472;9.794;2023-09-07T09:11:16;24.10;74.00
15969;DHT22;8085;53.472;9.794;2023-09-07T09:13:43;24.30;73.50
15969;DHT22;8085;53.472;9.794;2023-09-07T09:16:11;24.40;73.80
15969;DHT22;8085;53.472;9.794;2023-09-07T09:18:46;24.50;71.90
15969;DHT22;8085;53.472;9.794;2023-09-07T09:21:15;24.70;72.10
15969;DHT22;8085;53.472;9.794;2023-09-07T09:23:43;24.70;69.80
15969;DHT22;8085;53.472;9.794;2023-09-07T09:26:11;24.90;69.50
15969;DHT22;8085;53.472;9.794;2023-09-07T09:28:39;25.00;66.80
15969;DHT22;8085;53.472;9.794;2023-09-07T09:31:06;25.10;65.90
15969;DHT22;8085;53.472;9.794;2023-09-07T09:33:38;25.10;65.80
15969;DHT22;8085;53.472;9.794;2023-09-07T09:36:06;25.20;66.30
15969;DHT22;8085;53.472;9.794;2023-09-07T09:38:34;25.30;67.40
15969;DHT22;8085;53.472;9.794;2023-09-07T09:41:03;25.30;65.70
15969;DHT22;8085;53.472;9.794;2023-09-07T09:43:30;25.40;62.70
15969;DHT22;8085;53.472;9.794;2023-09-07T09:45:57;25.60;63.00
15969;DHT22;8085;53.472;9.794;2023-09-07T09:48:27;25.60;63.80
15969;DHT22;8085;53.472;9.794;2023-09-07T09:50:59;25.70;63.00
15969;DHT22;8085;53.472;9.794;2023-09-07T09:53:27;25.80;62.20
15969;DHT22;8085;53.472;9.794;2023-09-07T09:55:55;25.80;63.40
15969;DHT22;8085;53.472;9.794;2023-09-07T09:58:22;25.80;61.50
15969;DHT22;8085;53.472;9.794;2023-09-07T10:00:51;25.90;60.40
15969;DHT22;8085;53.472;9.794;2023-09-07T10:03:26;25.90;60.60
15969;DHT22;8085;53.472;9.794;2023-09-07T10:05:55;26.00;60.60
15969;DHT22;8085;53.472;9.794;2023-09-07T10:08:22;26.00;59.70
15969;DHT22;8085;53.472;9.794;2023-09-07T10:10:53;26.00;59.70
15969;DHT22;8085;53.472;9.794;2023-09-07T10:13:30;26.10;60.70
15969;DHT22;8085;53.472;9.794;2023-09-07T10:16:01;26.10;59.70
15969;DHT22;8085;53.472;9.794;2023-09-07T10:18:34;26.20;58.80
15969;DHT22;8085;53.472;9.794;2023-09-07T10:21:02;26.30;58.50
15969;DHT22;8085;53.472;9.794;2023-09-07T10:23:36;26.30;58.90
15969;DHT22;8085;53.472;9.794;2023-09-07T10:26:05;26.50;56.60
15969;DHT22;8085;53.472;9.794;2023-09-07T10:28:33;26.50;56.10
15969;DHT22;8085;53.472;9.794;2023-09-07T10:31:01;26.60;56.50
15969;DHT22;8085;53.472;9.794;2023-09-07T10:33:30;26.60;55.40
15969;DHT22;8085;53.472;9.794;2023-09-07T10:35:57;26.70;55.60
15969;DHT22;8085;53.472;9.794;2023-09-07T10:38:24;26.70;55.90
15969;DHT22;8085;53.472;9.794;2023-09-07T10:40:55;26.70;56.10
15969;DHT22;8085;53.472;9.794;2023-09-07T10:43:24;26.80;55.20
15969;DHT22;8085;53.472;9.794;2023-09-07T10:45:53;26.90;55.40
15969;DHT22;8085;53.472;9.794;2023-09-07T10:48:20;27.00;55.50
15969;DHT22;8085;53.472;9.794;2023-09-07T10:50:47;27.10;53.90
15969;DHT22;8085;53.472;9.794;2023-09-07T10:53:24;27.10;55.20
15969;DHT22;8085;53.472;9.794;2023-09-07T10:55:51;27.10;54.60
15969;DHT22;8085;53.472;9.794;2023-09-07T10:58:25;27.10;53.20
15969;DHT22;8085;53.472;9.794;2023-09-07T11:00:54;27.20;54.40
15969;DHT22;8085;53.472;9.794;2023-09-07T11:03:20;27.10;53.30
15969;DHT22;8085;53.472;9.794;2023-09-07T11:05:48;27.20;54.60
15969;DHT22;8085;53.472;9.794;2023-09-07T11:08:16;27.30;53.30
15969;DHT22;8085;53.472;9.794;2023-09-07T11:10:43;27.30;52.60
15969;DHT22;8085;53.472;9.794;2023-09-07T11:13:10;27.40;53.00
15969;DHT22;8085;53.472;9.794;2023-09-07T11:15:37;27.40;53.50
15969;DHT22;8085;53.472;9.794;2023-09-07T11:18:07;27.50;53.20
15969;DHT22;8085;53.472;9.794;2023-09-07T11:20:37;27.50;53.70
15969;DHT22;8085;53.472;9.794;2023-09-07T11:23:08;27.50;54.00
15969;DHT22;8085;53.472;9.794;2023-09-07T11:25:35;27.60;54.90
15969;DHT22;8085;53.472;9.794;2023-09-07T11:28:03;27.60;53.20
15969;DHT22;8085;53.472;9.794;2023-09-07T11:30:30;27.70;52.40
15969;DHT22;8085;53.472;9.794;2023-09-07T11:33:01;27.80;52.40
15969;DHT22;8085;53.472;9.794;2023-09-07T11:35:30;27.80;53.30
15969;DHT22;8085;53.472;9.794;2023-09-07T11:37:58;27.80;53.40
15969;DHT22;8085;53.472;9.794;2023-09-07T11:40:25;27.90;52.00
15969;DHT22;8085;53.472;9.794;2023-09-07T11:42:52;27.90;52.50
15969;DHT22;8085;53.472;9.794;2023-09-07T11:45:19;27.90;52.20
15969;DHT22;8085;53.472;9.794;2023-09-07T11:47:46;27.90;53.40
15969;DHT22;8085;53.472;9.794;2023-09-07T11:50:16;28.00;53.00
15969;DHT22;8085;53.472;9.794;2023-09-07T11:52:44;28.10;52.90
15969;DHT22;8085;53.472;9.794;2023-09-07T11:55:13;28.10;52.80
15969;DHT22;8085;53.472;9.794;2023-09-07T11:57:40;28.20;52.50
15969;DHT22;8085;53.472;9.794;2023-09-07T12:00:07;28.30;52.70
15969;DHT22;8085;53.472;9.794;2023-09-07T12:02:36;28.50;52.40
15969;DHT22;8085;53.472;9.794;2023-09-07T12:05:04;28.50;51.80
15969;DHT22;8085;53.472;9.794;2023-09-07T12:07:33;28.50;50.70
15969;DHT22;8085;53.472;9.794;2023-09-07T12:10:01;28.60;50.40
15969;DHT22;8085;53.472;9.794;2023-09-07T12:12:29;28.70;50.10
15969;DHT22;8085;53.472;9.794;2023-09-07T12:14:55;28.70;50.10
15969;DHT22;8085;53.472;9.794;2023-09-07T12:17:22;28.70;50.20
15969;DHT22;8085;53.472;9.794;2023-09-07T12:19:50;28.70;50.20
15969;DHT22;8085;53.472;9.794;2023-09-07T12:22:17;28.70;50.00
15969;DHT22;8085;53.472;9.794;2023-09-07T12:24:44;28.70;50.50
15969;DHT22;8085;53.472;9.794;2023-09-07T12:27:12;28.70;50.60
15969;DHT22;8085;53.472;9.794;2023-09-07T12:29:40;28.70;51.20
15969;DHT22;8085;53.472;9.794;2023-09-07T12:32:06;28.60;51.00
15969;DHT22;8085;53.472;9.794;2023-09-07T12:34:33;28.70;50.60
15969;DHT22;8085;53.472;9.794;2023-09-07T12:37:01;28.80;49.50
15969;DHT22;8085;53.472;9.794;2023-09-07T12:39:29;28.90;49.50
15969;DHT22;8085;53.472;9.794;2023-09-07T12:41:56;29.00;48.70
15969;DHT22;8085;53.472;9.794;2023-09-07T12:44:25;29.10;48.10
15969;DHT22;8085;53.472;9.794;2023-09-07T12:46:52;29.20;48.30
15969;DHT22;8085;53.472;9.794;2023-09-07T12:49:18;29.20;47.40
15969;DHT22;8085;53.472;9.794;2023-09-07T12:51:45;29.20;46.40
15969;DHT22;8085;53.472;9.794;2023-09-07T12:54:13;29.30;46.10
15969;DHT22;8085;53.472;9.794;2023-09-07T12:56:40;29.40;46.90
15969;DHT22;8085;53.472;9.794;2023-09-07T12:59:07;29.40;46.20
15969;DHT22;8085;53.472;9.794;2023-09-07T13:01:35;29.40;44.90
15969;DHT22;8085;53.472;9.794;2023-09-07T13:04:02;29.40;45.70
15969;DHT22;8085;53.472;9.794;2023-09-07T13:06:29;29.50;44.60
15969;DHT22;8085;53.472;9.794;2023-09-07T13:08:56;29.60;44.70
15969;DHT22;8085;53.472;9.794;2023-09-07T13:11:23;29.70;44.30
15969;DHT22;8085;53.472;9.794;2023-09-07T13:13:50;29.80;43.30
15969;DHT22;8085;53.472;9.794;2023-09-07T13:16:18;29.90;43.10
15969;DHT22;8085;53.472;9.794;2023-09-07T13:18:46;30.00;43.50
15969;DHT22;8085;53.472;9.794;2023-09-07T13:21:13;30.00;42.80
15969;DHT22;8085;53.472;9.794;2023-09-07T13:23:40;29.90;42.90
15969;DHT22;8085;53.472;9.794;2023-09-07T13:26:08;29.90;42.60
15969;DHT22;8085;53.472;9.794;2023-09-07T13:28:34;29.90;43.10
15969;DHT22;8085;53.472;9.794;2023-09-07T13:31:01;29.90;41.90
15969;DHT22;8085;53.472;9.794;2023-09-07T13:33:29;29.90;42.40
15969;DHT22;8085;53.472;9.794;2023-09-07T13:35:58;30.10;42.30
15969;DHT22;8085;53.472;9.794;2023-09-07T13:38:24;30.20;42.30
15969;DHT22;8085;53.472;9.794;2023-09-07T13:40:51;30.30;42.50
15969;DHT22;8085;53.472;9.794;2023-09-07T13:43:18;30.40;40.80
15969;DHT22;8085;53.472;9.794;2023-09-07T13:45:45;30.40;40.20
15969;DHT22;8085;53.472;9.794;2023-09-07T13:48:12;30.40;40.90
15969;DHT22;8085;53.472;9.794;2023-09-07T13:50:39;30.50;40.40
15969;DHT22;8085;53.472;9.794;2023-09-07T13:53:07;30.50;41.40
15969;DHT22;8085;53.472;9.794;2023-09-07T13:55:34;30.60;41.20
15969;DHT22;8085;53.472;9.794;2023-09-07T13:58:01;30.60;41.20
15969;DHT22;8085;53.472;9.794;2023-09-07T14:00:28;30.60;41.40
15969;DHT22;8085;53.472;9.794;2023-09-07T14:02:55;30.60;41.60
15969;DHT22;8085;53.472;9.794;2023-09-07T14:05:22;30.50;41.20
15969;DHT22;8085;53.472;9.794;2023-09-07T14:07:49;30.50;41.50
15969;DHT22;8085;53.472;9.794;2023-09-07T14:10:17;30.50;41.80
15969;DHT22;8085;53.472;9.794;2023-09-07T14:12:44;30.50;41.90
15969;DHT22;8085;53.472;9.794;2023-09-07T14:15:12;30.50;41.90
15969;DHT22;8085;53.472;9.794;2023-09-07T14:17:39;30.50;41.10
15969;DHT22;8085;53.472;9.794;2023-09-07T14:20:07;30.50;42.00
15969;DHT22;8085;53.472;9.794;2023-09-07T14:22:34;30.30;42.10
15969;DHT22;8085;53.472;9.794;2023-09-07T14:25:01;30.30;42.40
15969;DHT22;8085;53.472;9.794;2023-09-07T14:27:29;30.20;41.40
15969;DHT22;8085;53.472;9.794;2023-09-07T14:29:56;30.20;41.10
15969;DHT22;8085;53.472;9.794;2023-09-07T14:32:23;30.20;41.20
15969;DHT22;8085;53.472;9.794;2023-09-07T14:34:50;30.10;41.60
15969;DHT22;8085;53.472;9.794;2023-09-07T14:37:17;30.10;41.60
15969;DHT22;8085;53.472;9.794;2023-09-07T14:39:43;30.10;40.70
15969;DHT22;8085;53.472;9.794;2023-09-07T14:42:13;30.00;41.30
15969;DHT22;8085;53.472;9.794;2023-09-07T14:44:44;30.00;41.40
15969;DHT22;8085;53.472;9.794;2023-09-07T14:47:11;30.10;40.80
15969;DHT22;8085;53.472;9.794;2023-09-07T14:49:38;30.00;40.00
15969;DHT22;8085;53.472;9.794;2023-09-07T14:52:05;30.00;40.30
15969;DHT22;8085;53.472;9.794;2023-09-07T14:54:32;29.90;39.90
15969;DHT22;8085;53.472;9.794;2023-09-07T14:56:59;29.90;40.10
15969;DHT22;8085;53.472;9.794;2023-09-07T14:59:26;29.80;40.80
15969;DHT22;8085;53.472;9.794;2023-09-07T15:01:54;29.80;40.30
15969;DHT22;8085;53.472;9.794;2023-09-07T15:04:21;29.70;40.10
15969;DHT22;8085;53.472;9.794;2023-09-07T15:06:48;29.60;40.70
15969;DHT22;8085;53.472;9.794;2023-09-07T15:09:15;29.60;40.60
15969;DHT22;8085;53.472;9.794;2023-09-07T15:11:42;29.50;41.40
15969;DHT22;8085;53.472;9.794;2023-09-07T15:14:09;29.30;41.70
15969;DHT22;8085;53.472;9.794;2023-09-07T15:16:36;29.20;41.10
15969;DHT22;8085;53.472;9.794;2023-09-07T15:19:04;29.10;42.60
15969;DHT22;8085;53.472;9.794;2023-09-07T15:21:31;29.00;41.20
15969;DHT22;8085;53.472;9.794;2023-09-07T15:23:58;29.00;41.90
15969;DHT22;8085;53.472;9.794;2023-09-07T15:26:24;29.00;42.00
15969;DHT22;8085;53.472;9.794;2023-09-07T15:28:51;29.00;43.20
15969;DHT22;8085;53.472;9.794;2023-09-07T15:31:18;29.00;42.00
15969;DHT22;8085;53.472;9.794;2023-09-07T15:33:45;29.00;41.70
15969;DHT22;8085;53.472;9.794;2023-09-07T15:36:13;29.00;42.50
15969;DHT22;8085;53.472;9.794;2023-09-07T15:38:41;29.00;41.40
15969;DHT22;8085;53.472;9.794;2023-09-07T15:41:08;28.90;41.30
15969;DHT22;8085;53.472;9.794;2023-09-07T15:43:35;28.80;41.10
15969;DHT22;8085;53.472;9.794;2023-09-07T15:46:01;28.80;41.00
15969;DHT22;8085;53.472;9.794;2023-09-07T15:48:28;28.80;41.00